sensor_id;sensor_type;location;lat;lon;timestamp;pressure;altitude;pressure_sealevel;temperature;humidity
48862;BME280;34681;49.188;-0.374;2022-12-10T00:00:54;100761.06;;;4.96;nan
48862;BME280;34681;49.188;-0.374;2022-12-10T00:03:20;100756.09;;;4.90;nan
48862;BME280;34681;49.188;-0.374;2022-12-10T00:05:45;100758.13;;;4.99;nan
48862;BME280;34681;49.188;-0.374;2022-12-10T00:08:10;100761.16;;;4.95;nan
48862;BME280;34681;49.188;-0.374;2022-12-10T00:10:40;100764.03;;;4.81;nan
48862;BME280;34681;49.188;-0.374;2022-12-10T00:13:05;100769.97;;;4.86;nan
48862;BME280;34681;49.188;-0.374;2022-12-10T00:15:34;100773.84;;;4.94;nan
48862;BME280;34681;49.188;-0.374;2022-12-10T00:17:59;100779.94;;;4.85;nan
48862;BME280;34681;49.188;-0.374;2022-12-10T00:20:25;100784.38;;;4.86;nan
48862;BME280;34681;49.188;-0.374;2022-12-10T00:22:50;100775.94;;;4.78;nan
48862;BME280;34681;49.188;-0.374;2022-12-10T00:25:16;100775.94;;;4.65;nan
48862;BME280;34681;49.188;-0.374;2022-12-10T00:27:41;100781.91;;;4.70;nan
48862;BME280;34681;49.188;-0.374;2022-12-10T00:30:07;100775.81;;;4.54;nan
48862;BME280;34681;49.188;-0.374;2022-12-10T00:32:33;100777.34;;;4.58;nan
48862;BME280;34681;49.188;-0.374;2022-12-10T00:34:58;100777.13;;;4.48;nan
48862;BME280;34681;49.188;-0.374;2022-12-10T00:37:23;100782.78;;;4.58;nan
48862;BME280;34681;49.188;-0.374;2022-12-10T00:39:49;100778.53;;;4.79;nan
48862;BME280;34681;49.188;-0.374;2022-12-10T00:42:14;100783.00;;;4.81;nan
48862;BME280;34681;49.188;-0.374;2022-12-10T00:44:39;100776.38;;;4.97;nan
48862;BME280;34681;49.188;-0.374;2022-12-10T00:47:05;100782.28;;;5.28;nan
48862;BME280;34681;49.188;-0.374;2022-12-10T00:49:30;100778.22;;;5.46;nan
48862;BME280;34681;49.188;-0.374;2022-12-10T00:51:55;100778.97;;;5.48;nan
48862;BME280;34681;49.188;-0.374;2022-12-10T00:54:20;100781.56;;;5.50;nan
48862;BME280;34681;49.188;-0.374;2022-12-10T00:56:46;100786.88;;;5.51;nan
48862;BME280;34681;49.188;-0.374;2022-12-10T00:59:12;100789.84;;;5.48;nan
48862;BME280;34681;49.188;-0.374;2022-12-10T01:01:40;100780.03;;;5.46;nan
48862;BME280;34681;49.188;-0.374;2022-12-10T01:04:09;100783.31;;;5.51;nan
48862;BME280;34681;49.188;-0.374;2022-12-10T01:06:40;100783.66;;;5.46;nan
48862;BME280;34681;49.188;-0.374;2022-12-10T01:09:08;100782.25;;;5.41;nan
48862;BME280;34681;49.188;-0.374;2022-12-10T01:11:36;100786.06;;;5.38;nan
48862;BME280;34681;49.188;-0.374;2022-12-10T01:14:03;100796.13;;;5.36;nan
48862;BME280;34681;49.188;-0.374;2022-12-10T01:16:28;100784.78;;;5.31;nan
48862;BME280;34681;49.188;-0.374;2022-12-10T01:18:55;100785.97;;;5.27;nan
48862;BME280;34681;49.188;-0.374;2022-12-10T01:21:22;100788.25;;;5.33;nan
48862;BME280;34681;49.188;-0.374;2022-12-10T01:23:49;100798.34;;;5.31;nan
48862;BME280;34681;49.188;-0.374;2022-12-10T01:26:18;100799.88;;;5.22;nan
48862;BME280;34681;49.188;-0.374;2022-12-10T01:28:44;100798.16;;;5.08;nan
48862;BME280;34681;49.188;-0.374;2022-12-10T01:31:16;100795.66;;;4.93;nan
48862;BME280;34681;49.188;-0.374;2022-12-10T01:33:42;100806.63;;;4.66;nan
48862;BME280;34681;49.188;-0.374;2022-12-10T01:36:11;100802.28;;;4.76;nan
48862;BME280;34681;49.188;-0.374;2022-12-10T01:38:37;100812.06;;;4.66;nan
48862;BME280;34681;49.188;-0.374;2022-12-10T01:41:03;100818.97;;;4.70;nan
48862;BME280;34681;49.188;-0.374;2022-12-10T01:46:14;100807.94;;;4.73;nan
48862;BME280;34681;49.188;-0.374;2022-12-10T01:48:39;100813.03;;;4.77;nan
48862;BME280;34681;49.188;-0.374;2022-12-10T01:51:05;100810.75;;;4.84;nan
48862;BME280;34681;49.188;-0.374;2022-12-10T01:53:31;100815.41;;;4.82;nan
48862;BME280;34681;49.188;-0.374;2022-12-10T01:55:57;100817.69;;;4.75;nan
48862;BME280;34681;49.188;-0.374;2022-12-10T01:58:22;100823.88;;;4.77;nan
48862;BME280;34681;49.188;-0.374;2022-12-10T02:01:07;100822.88;;;4.78;nan
48862;BME280;34681;49.188;-0.374;2022-12-10T02:14:27;100827.44;;;4.65;nan
48862;BME280;34681;49.188;-0.374;2022-12-10T02:17:25;100834.25;;;4.71;nan
48862;BME280;34681;49.188;-0.374;2022-12-10T02:22:25;100837.09;;;4.69;nan
48862;BME280;34681;49.188;-0.374;2022-12-10T02:24:52;100832.63;;;4.68;nan
48862;BME280;34681;49.188;-0.374;2022-12-10T02:27:21;100838.72;;;4.59;nan
48862;BME280;34681;49.188;-0.374;2022-12-10T02:29:49;100838.41;;;4.64;nan
48862;BME280;34681;49.188;-0.374;2022-12-10T02:32:23;100838.28;;;4.65;nan
48862;BME280;34681;49.188;-0.374;2022-12-10T02:34:55;100835.13;;;4.59;nan
48862;BME280;34681;49.188;-0.374;2022-12-10T02:37:33;100842.69;;;4.54;nan
48862;BME280;34681;49.188;-0.374;2022-12-10T02:40:06;100839.97;;;4.41;nan
48862;BME280;34681;49.188;-0.374;2022-12-10T02:42:36;100834.91;;;4.49;nan
48862;BME280;34681;49.188;-0.374;2022-12-10T02:45:05;100841.06;;;4.51;nan
48862;BME280;34681;49.188;-0.374;2022-12-10T02:47:32;100845.09;;;4.18;nan
48862;BME280;34681;49.188;-0.374;2022-12-10T02:49:58;100835.53;;;4.40;nan
48862;BME280;34681;49.188;-0.374;2022-12-10T02:52:24;100839.00;;;4.42;nan
48862;BME280;34681;49.188;-0.374;2022-12-10T02:54:50;100837.47;;;4.38;nan
48862;BME280;34681;49.188;-0.374;2022-12-10T03:02:40;100840.97;;;4.40;nan
48862;BME280;34681;49.188;-0.374;2022-12-10T03:07:46;100834.97;;;4.35;nan
48862;BME280;34681;49.188;-0.374;2022-12-10T03:10:37;100826.94;;;4.33;nan
48862;BME280;34681;49.188;-0.374;2022-12-10T03:13:10;100817.84;;;4.34;nan
48862;BME280;34681;49.188;-0.374;2022-12-10T03:15:40;100816.31;;;4.30;nan
48862;BME280;34681;49.188;-0.374;2022-12-10T03:18:07;100820.31;;;4.25;nan
48862;BME280;34681;49.188;-0.374;2022-12-10T03:20:37;100821.09;;;4.27;nan
48862;BME280;34681;49.188;-0.374;2022-12-10T03:23:06;100819.47;;;4.24;nan
48862;BME280;34681;49.188;-0.374;2022-12-10T03:25:34;100814.03;;;4.24;nan
48862;BME280;34681;49.188;-0.374;2022-12-10T03:28:00;100824.00;;;4.23;nan
48862;BME280;34681;49.188;-0.374;2022-12-10T03:30:26;100819.47;;;4.24;nan
48862;BME280;34681;49.188;-0.374;2022-12-10T03:32:52;100824.00;;;4.23;nan
48862;BME280;34681;49.188;-0.374;2022-12-10T03:35:20;100823.34;;;4.20;nan
48862;BME280;34681;49.188;-0.374;2022-12-10T03:37:46;100816.00;;;4.22;nan
48862;BME280;34681;49.188;-0.374;2022-12-10T03:40:14;100824.88;;;4.24;nan
48862;BME280;34681;49.188;-0.374;2022-12-10T03:42:42;100820.84;;;4.17;nan
48862;BME280;34681;49.188;-0.374;2022-12-10T03:45:08;100828.09;;;4.16;nan
48862;BME280;34681;49.188;-0.374;2022-12-10T03:47:33;100833.63;;;4.15;nan
48862;BME280;34681;49.188;-0.374;2022-12-10T03:49:59;100830.34;;;4.10;nan
48862;BME280;34681;49.188;-0.374;2022-12-10T03:52:24;100835.31;;;4.03;nan
48862;BME280;34681;49.188;-0.374;2022-12-10T03:54:50;100832.84;;;4.13;nan
48862;BME280;34681;49.188;-0.374;2022-12-10T03:57:15;100827.75;;;4.08;nan
48862;BME280;34681;49.188;-0.374;2022-12-10T03:59:40;100824.81;;;4.11;nan
48862;BME280;34681;49.188;-0.374;2022-12-10T04:02:06;100826.78;;;4.09;nan
48862;BME280;34681;49.188;-0.374;2022-12-10T04:04:31;100836.06;;;4.05;nan
48862;BME280;34681;49.188;-0.374;2022-12-10T04:06:57;100828.72;;;4.07;nan
48862;BME280;34681;49.188;-0.374;2022-12-10T04:09:22;100828.50;;;4.10;nan
48862;BME280;34681;49.188;-0.374;2022-12-10T04:11:48;100832.19;;;4.09;nan
48862;BME280;34681;49.188;-0.374;2022-12-10T04:14:13;100828.72;;;4.07;nan
48862;BME280;34681;49.188;-0.374;2022-12-10T04:16:58;100842.44;;;4.04;nan
48862;BME280;34681;49.188;-0.374;2022-12-10T04:19:24;100840.59;;;4.05;nan
48862;BME280;34681;49.188;-0.374;2022-12-10T04:21:50;100841.59;;;4.04;nan
48862;BME280;34681;49.188;-0.374;2022-12-10T04:24:35;100857.06;;;4.02;nan
48862;BME280;34681;49.188;-0.374;2022-12-10T04:27:28;100852.75;;;3.99;nan
48862;BME280;34681;49.188;-0.374;2022-12-10T04:29:55;100852.63;;;4.01;nan
48862;BME280;34681;49.188;-0.374;2022-12-10T04:32:21;100852.63;;;4.01;nan
48862;BME280;34681;49.188;-0.374;2022-12-10T04:34:47;100854.88;;;3.94;nan
48862;BME280;34681;49.188;-0.374;2022-12-10T04:37:13;100856.44;;;3.98;nan
48862;BME280;34681;49.188;-0.374;2022-12-10T04:39:39;100850.78;;;4.01;nan
48862;BME280;34681;49.188;-0.374;2022-12-10T04:42:05;100851.75;;;4.00;nan
48862;BME280;34681;49.188;-0.374;2022-12-10T04:44:31;100853.25;;;3.91;nan
48862;BME280;34681;49.188;-0.374;2022-12-10T04:46:57;100851.81;;;3.86;nan
48862;BME280;34681;49.188;-0.374;2022-12-10T04:49:23;100860.69;;;3.88;nan
48862;BME280;34681;49.188;-0.374;2022-12-10T04:51:49;100860.41;;;3.92;nan
48862;BME280;34681;49.188;-0.374;2022-12-10T04:54:15;100860.41;;;3.92;nan
48862;BME280;34681;49.188;-0.374;2022-12-10T04:56:41;100852.56;;;3.88;nan
48862;BME280;34681;49.188;-0.374;2022-12-10T04:59:08;100854.97;;;3.92;nan
48862;BME280;34681;49.188;-0.374;2022-12-10T05:01:33;100862.53;;;3.87;nan
48862;BME280;34681;49.188;-0.374;2022-12-10T05:04:03;100864.19;;;3.90;nan
48862;BME280;34681;49.188;-0.374;2022-12-10T05:06:30;100855.09;;;3.91;nan
48862;BME280;34681;49.188;-0.374;2022-12-10T05:08:56;100852.78;;;3.85;nan
48862;BME280;34681;49.188;-0.374;2022-12-10T05:11:24;100854.16;;;3.78;nan
48862;BME280;34681;49.188;-0.374;2022-12-10T05:13:50;100847.75;;;3.79;nan
48862;BME280;34681;49.188;-0.374;2022-12-10T05:16:18;100847.47;;;3.83;nan
48862;BME280;34681;49.188;-0.374;2022-12-10T05:18:44;100855.59;;;3.83;nan
48862;BME280;34681;49.188;-0.374;2022-12-10T05:21:14;100851.25;;;3.81;nan
48862;BME280;34681;49.188;-0.374;2022-12-10T05:23:42;100847.47;;;3.83;nan
48862;BME280;34681;49.188;-0.374;2022-12-10T05:28:37;100855.22;;;3.75;nan
48862;BME280;34681;49.188;-0.374;2022-12-10T05:31:04;100852.41;;;3.77;nan
48862;BME280;34681;49.188;-0.374;2022-12-10T05:33:30;100857.16;;;3.73;nan
48862;BME280;34681;49.188;-0.374;2022-12-10T05:36:01;100865.19;;;3.75;nan
48862;BME280;34681;49.188;-0.374;2022-12-10T05:38:29;100858.31;;;3.69;nan
48862;BME280;34681;49.188;-0.374;2022-12-10T05:40:55;100863.94;;;3.66;nan
48862;BME280;34681;49.188;-0.374;2022-12-10T05:43:20;100857.75;;;3.64;nan
48862;BME280;34681;49.188;-0.374;2022-12-10T05:45:47;100856.59;;;3.68;nan
48862;BME280;34681;49.188;-0.374;2022-12-10T05:48:14;100863.63;;;3.71;nan
48862;BME280;34681;49.188;-0.374;2022-12-10T05:50:40;100862.09;;;3.66;nan
48862;BME280;34681;49.188;-0.374;2022-12-10T05:53:06;100863.56;;;3.58;nan
48862;BME280;34681;49.188;-0.374;2022-12-10T05:55:31;100863.47;;;3.59;nan
48862;BME280;34681;49.188;-0.374;2022-12-10T05:58:01;100865.09;;;3.62;nan
48862;BME280;34681;49.188;-0.374;2022-12-10T06:00:27;100865.09;;;3.62;nan
48862;BME280;34681;49.188;-0.374;2022-12-10T06:02:53;100866.84;;;3.63;nan
48862;BME280;34681;49.188;-0.374;2022-12-10T06:05:19;100874.69;;;3.53;nan
48862;BME280;34681;49.188;-0.374;2022-12-10T06:07:44;100879.13;;;3.54;nan
48862;BME280;34681;49.188;-0.374;2022-12-10T06:10:09;100884.41;;;2.70;nan
48862;BME280;34681;49.188;-0.374;2022-12-10T06:12:36;100885.44;;;2.23;nan
48862;BME280;34681;49.188;-0.374;2022-12-10T06:15:01;100894.25;;;1.80;nan
48862;BME280;34681;49.188;-0.374;2022-12-10T06:17:26;100898.25;;;1.24;nan
48862;BME280;34681;49.188;-0.374;2022-12-10T06:19:52;100895.28;;;0.79;nan
48862;BME280;34681;49.188;-0.374;2022-12-10T06:22:17;100898.19;;;0.40;nan
48862;BME280;34681;49.188;-0.374;2022-12-10T06:24:42;100897.25;;;0.24;nan
48862;BME280;34681;49.188;-0.374;2022-12-10T06:27:08;100898.22;;;0.75;nan
48862;BME280;34681;49.188;-0.374;2022-12-10T06:29:33;100912.22;;;0.64;nan
48862;BME280;34681;49.188;-0.374;2022-12-10T06:31:58;100919.13;;;-0.01;nan
48862;BME280;34681;49.188;-0.374;2022-12-10T06:34:24;100930.78;;;-0.19;nan
48862;BME280;34681;49.188;-0.374;2022-12-10T06:36:49;100936.53;;;-0.27;nan
48862;BME280;34681;49.188;-0.374;2022-12-10T06:39:14;100934.31;;;0.36;nan
48862;BME280;34681;49.188;-0.374;2022-12-10T06:41:40;100934.28;;;0.19;nan
48862;BME280;34681;49.188;-0.374;2022-12-10T06:44:09;100930.84;;;0.34;nan
48862;BME280;34681;49.188;-0.374;2022-12-10T06:46:35;100933.47;;;0.88;nan
48862;BME280;34681;49.188;-0.374;2022-12-10T06:49:01;100929.28;;;1.48;nan
48862;BME280;34681;49.188;-0.374;2022-12-10T06:51:26;100944.13;;;1.88;nan
48862;BME280;34681;49.188;-0.374;2022-12-10T06:53:52;100950.53;;;1.21;nan
48862;BME280;34681;49.188;-0.374;2022-12-10T06:56:19;100940.56;;;0.37;nan
48862;BME280;34681;49.188;-0.374;2022-12-10T06:58:44;100948.53;;;-0.15;nan
48862;BME280;34681;49.188;-0.374;2022-12-10T07:01:21;100943.88;;;-0.31;nan
48862;BME280;34681;49.188;-0.374;2022-12-10T07:03:54;100947.59;;;-0.33;nan
48862;BME280;34681;49.188;-0.374;2022-12-10T07:06:20;100954.69;;;-0.13;nan
48862;BME280;34681;49.188;-0.374;2022-12-10T07:08:47;100950.47;;;0.00;nan
48862;BME280;34681;49.188;-0.374;2022-12-10T07:11:14;100951.03;;;0.43;nan
48862;BME280;34681;49.188;-0.374;2022-12-10T07:13:40;100953.00;;;0.39;nan
48862;BME280;34681;49.188;-0.374;2022-12-10T07:16:20;100936.34;;;1.18;nan
48862;BME280;34681;49.188;-0.374;2022-12-10T07:18:46;100945.00;;;1.40;nan
48862;BME280;34681;49.188;-0.374;2022-12-10T07:21:32;100947.88;;;2.02;nan
48862;BME280;34681;49.188;-0.374;2022-12-10T07:24:03;100951.44;;;2.18;nan
48862;BME280;34681;49.188;-0.374;2022-12-10T07:26:31;100948.56;;;1.89;nan
48862;BME280;34681;49.188;-0.374;2022-12-10T07:28:59;100958.44;;;0.91;nan
48862;BME280;34681;49.188;-0.374;2022-12-10T07:31:24;100962.47;;;1.66;nan
48862;BME280;34681;49.188;-0.374;2022-12-10T07:33:53;100960.50;;;2.33;nan
48862;BME280;34681;49.188;-0.374;2022-12-10T07:36:19;100966.28;;;2.57;nan
48862;BME280;34681;49.188;-0.374;2022-12-10T07:38:45;100957.50;;;2.83;nan
48862;BME280;34681;49.188;-0.374;2022-12-10T07:41:12;100959.81;;;2.89;nan
48862;BME280;34681;49.188;-0.374;2022-12-10T07:43:40;100961.88;;;3.00;nan
48862;BME280;34681;49.188;-0.374;2022-12-10T07:46:11;100961.03;;;3.14;nan
48862;BME280;34681;49.188;-0.374;2022-12-10T07:48:38;100969.13;;;3.14;nan
48862;BME280;34681;49.188;-0.374;2022-12-10T07:51:04;100965.28;;;3.18;nan
48862;BME280;34681;49.188;-0.374;2022-12-10T07:53:30;100974.50;;;3.44;nan
48862;BME280;34681;49.188;-0.374;2022-12-10T07:55:55;100968.41;;;3.54;nan
48862;BME280;34681;49.188;-0.374;2022-12-10T07:58:21;100969.66;;;3.63;nan
48862;BME280;34681;49.188;-0.374;2022-12-10T08:00:46;100971.09;;;3.54;nan
48862;BME280;34681;49.188;-0.374;2022-12-10T08:03:11;100978.38;;;3.68;nan
48862;BME280;34681;49.188;-0.374;2022-12-10T08:05:37;100977.47;;;3.96;nan
48862;BME280;34681;49.188;-0.374;2022-12-10T08:08:02;100976.78;;;4.07;nan
48862;BME280;34681;49.188;-0.374;2022-12-10T08:10:28;100972.84;;;3.98;nan
48862;BME280;34681;49.188;-0.374;2022-12-10T08:12:53;100973.28;;;4.05;nan
48862;BME280;34681;49.188;-0.374;2022-12-10T08:15:19;100969.22;;;4.12;nan
48862;BME280;34681;49.188;-0.374;2022-12-10T08:17:44;100976.59;;;4.10;nan
48862;BME280;34681;49.188;-0.374;2022-12-10T08:20:10;100977.84;;;4.04;nan
48862;BME280;34681;49.188;-0.374;2022-12-10T08:22:35;100982.88;;;4.10;nan
48862;BME280;34681;49.188;-0.374;2022-12-10T08:25:01;100974.34;;;4.16;nan
48862;BME280;34681;49.188;-0.374;2022-12-10T08:27:27;100976.09;;;4.17;nan
48862;BME280;34681;49.188;-0.374;2022-12-10T08:29:52;100977.16;;;4.15;nan
48862;BME280;34681;49.188;-0.374;2022-12-10T08:32:18;100987.03;;;4.16;nan
48862;BME280;34681;49.188;-0.374;2022-12-10T08:34:44;100987.56;;;4.21;nan
48862;BME280;34681;49.188;-0.374;2022-12-10T08:37:10;100984.72;;;4.37;nan
48862;BME280;34681;49.188;-0.374;2022-12-10T08:39:35;100990.63;;;4.43;nan
48862;BME280;34681;49.188;-0.374;2022-12-10T08:42:00;101000.00;;;4.38;nan
48862;BME280;34681;49.188;-0.374;2022-12-10T08:44:26;101022.41;;;4.13;nan
48862;BME280;34681;49.188;-0.374;2022-12-10T08:46:51;101019.81;;;3.54;nan
48862;BME280;34681;49.188;-0.374;2022-12-10T08:49:16;101012.69;;;3.82;nan
48862;BME280;34681;49.188;-0.374;2022-12-10T08:51:42;101034.53;;;3.93;nan
48862;BME280;34681;49.188;-0.374;2022-12-10T08:54:07;101027.09;;;3.09;nan
48862;BME280;34681;49.188;-0.374;2022-12-10T08:56:33;101012.38;;;3.72;nan
48862;BME280;34681;49.188;-0.374;2022-12-10T08:58:58;101027.34;;;4.20;nan
48862;BME280;34681;49.188;-0.374;2022-12-10T09:01:24;101036.84;;;3.85;nan
48862;BME280;34681;49.188;-0.374;2022-12-10T09:03:50;101030.13;;;3.33;nan
48862;BME280;34681;49.188;-0.374;2022-12-10T09:06:20;101032.47;;;4.11;nan
48862;BME280;34681;49.188;-0.374;2022-12-10T09:08:46;101031.44;;;3.99;nan
48862;BME280;34681;49.188;-0.374;2022-12-10T09:11:33;101033.88;;;4.45;nan
48862;BME280;34681;49.188;-0.374;2022-12-10T09:13:59;101036.78;;;4.96;nan
48862;BME280;34681;49.188;-0.374;2022-12-10T09:16:30;101036.97;;;5.20;nan
48862;BME280;34681;49.188;-0.374;2022-12-10T09:18:55;101040.47;;;5.22;nan
48862;BME280;34681;49.188;-0.374;2022-12-10T09:21:21;101033.59;;;5.29;nan
48862;BME280;34681;49.188;-0.374;2022-12-10T09:23:46;101036.78;;;5.23;nan
48862;BME280;34681;49.188;-0.374;2022-12-10T09:26:13;101038.50;;;5.36;nan
48862;BME280;34681;49.188;-0.374;2022-12-10T09:28:40;101037.75;;;5.34;nan
48862;BME280;34681;49.188;-0.374;2022-12-10T09:31:06;101046.25;;;5.55;nan
48862;BME280;34681;49.188;-0.374;2022-12-10T09:33:33;101043.00;;;5.50;nan
48862;BME280;34681;49.188;-0.374;2022-12-10T09:35:59;101044.41;;;5.69;nan
48862;BME280;34681;49.188;-0.374;2022-12-10T09:38:25;101044.84;;;5.75;nan
48862;BME280;34681;49.188;-0.374;2022-12-10T09:41:00;101045.63;;;5.90;nan
48862;BME280;34681;49.188;-0.374;2022-12-10T09:43:50;101044.66;;;5.91;nan
48862;BME280;34681;49.188;-0.374;2022-12-10T09:52:04;101040.84;;;6.06;nan
48862;BME280;34681;49.188;-0.374;2022-12-10T09:54:33;101042.47;;;6.09;nan
48862;BME280;34681;49.188;-0.374;2022-12-10T09:57:03;101034.88;;;6.14;nan
48862;BME280;34681;49.188;-0.374;2022-12-10T09:59:39;101036.59;;;5.89;nan
48862;BME280;34681;49.188;-0.374;2022-12-10T10:02:25;101041.38;;;6.11;nan
48862;BME280;34681;49.188;-0.374;2022-12-10T10:04:57;101037.69;;;6.00;nan
48862;BME280;34681;49.188;-0.374;2022-12-10T10:07:26;101038.78;;;6.10;nan
48862;BME280;34681;49.188;-0.374;2022-12-10T10:09:57;101042.03;;;6.15;nan
48862;BME280;34681;49.188;-0.374;2022-12-10T10:12:23;101035.63;;;6.16;nan
48862;BME280;34681;49.188;-0.374;2022-12-10T10:14:51;101042.38;;;5.98;nan
48862;BME280;34681;49.188;-0.374;2022-12-10T10:17:26;101050.50;;;5.85;nan
48862;BME280;34681;49.188;-0.374;2022-12-10T10:19:52;101042.50;;;5.96;nan
48862;BME280;34681;49.188;-0.374;2022-12-10T10:22:18;101046.41;;;6.05;nan
48862;BME280;34681;49.188;-0.374;2022-12-10T10:24:45;101039.75;;;6.09;nan
48862;BME280;34681;49.188;-0.374;2022-12-10T10:27:17;101037.69;;;6.00;nan
48862;BME280;34681;49.188;-0.374;2022-12-10T10:29:45;101039.19;;;6.04;nan
48862;BME280;34681;49.188;-0.374;2022-12-10T10:32:26;101038.44;;;5.89;nan
48862;BME280;34681;49.188;-0.374;2022-12-10T10:34:58;101041.47;;;5.84;nan
48862;BME280;34681;49.188;-0.374;2022-12-10T10:37:29;101028.75;;;5.85;nan
48862;BME280;34681;49.188;-0.374;2022-12-10T10:39:57;101025.94;;;5.86;nan
48862;BME280;34681;49.188;-0.374;2022-12-10T10:48:10;101028.22;;;5.67;nan
48862;BME280;34681;49.188;-0.374;2022-12-10T10:50:46;101031.50;;;5.47;nan
48862;BME280;34681;49.188;-0.374;2022-12-10T10:53:28;101032.78;;;5.54;nan
48862;BME280;34681;49.188;-0.374;2022-12-10T10:55:57;101034.97;;;5.49;nan
48862;BME280;34681;49.188;-0.374;2022-12-10T10:58:24;101026.59;;;5.39;nan
48862;BME280;34681;49.188;-0.374;2022-12-10T11:00:54;101027.56;;;5.51;nan
48862;BME280;34681;49.188;-0.374;2022-12-10T11:03:20;101028.88;;;5.58;nan
48862;BME280;34681;49.188;-0.374;2022-12-10T11:05:47;101031.25;;;5.50;nan
48862;BME280;34681;49.188;-0.374;2022-12-10T11:08:16;101032.78;;;5.54;nan
48862;BME280;34681;49.188;-0.374;2022-12-10T11:10:47;101025.72;;;5.51;nan
48862;BME280;34681;49.188;-0.374;2022-12-10T11:13:25;101022.91;;;5.66;nan
48862;BME280;34681;49.188;-0.374;2022-12-10T11:16:09;101018.22;;;5.42;nan
48862;BME280;34681;49.188;-0.374;2022-12-10T11:18:37;101025.41;;;5.69;nan
48862;BME280;34681;49.188;-0.374;2022-12-10T11:21:16;101021.94;;;5.67;nan
48862;BME280;34681;49.188;-0.374;2022-12-10T11:23:45;101022.81;;;5.80;nan
48862;BME280;34681;49.188;-0.374;2022-12-10T11:29:33;101014.03;;;5.63;nan
48862;BME280;34681;49.188;-0.374;2022-12-10T11:45:19;101001.19;;;5.53;nan
48862;BME280;34681;49.188;-0.374;2022-12-10T11:48:33;100998.28;;;5.56;nan
48862;BME280;34681;49.188;-0.374;2022-12-10T11:51:00;101001.63;;;5.34;nan
48862;BME280;34681;49.188;-0.374;2022-12-10T12:03:59;100981.53;;;5.62;nan
48862;BME280;34681;49.188;-0.374;2022-12-10T12:09:05;100980.56;;;5.63;nan
48862;BME280;34681;49.188;-0.374;2022-12-10T12:11:48;100972.09;;;5.68;nan
48862;BME280;34681;49.188;-0.374;2022-12-10T12:14:32;100978.91;;;5.86;nan
48862;BME280;34681;49.188;-0.374;2022-12-10T12:17:51;100978.06;;;5.73;nan
48862;BME280;34681;49.188;-0.374;2022-12-10T12:20:02;100977.53;;;5.55;nan
48862;BME280;34681;49.188;-0.374;2022-12-10T12:22:36;100971.84;;;5.71;nan
48862;BME280;34681;49.188;-0.374;2022-12-10T12:25:29;100976.53;;;5.69;nan
48862;BME280;34681;49.188;-0.374;2022-12-10T12:28:04;100977.63;;;5.91;nan
48862;BME280;34681;49.188;-0.374;2022-12-10T12:30:34;100977.50;;;5.80;nan
48862;BME280;34681;49.188;-0.374;2022-12-10T12:33:04;100977.84;;;5.76;nan
48862;BME280;34681;49.188;-0.374;2022-12-10T12:35:53;100979.88;;;6.10;nan
48862;BME280;34681;49.188;-0.374;2022-12-10T12:38:53;100965.09;;;6.14;nan
48862;BME280;34681;49.188;-0.374;2022-12-10T12:41:30;100963.72;;;5.83;nan
48862;BME280;34681;49.188;-0.374;2022-12-10T12:44:10;100964.38;;;5.74;nan
48862;BME280;34681;49.188;-0.374;2022-12-10T12:46:43;100966.41;;;6.09;nan
48862;BME280;34681;49.188;-0.374;2022-12-10T12:49:34;100967.75;;;5.90;nan
48862;BME280;34681;49.188;-0.374;2022-12-10T12:52:17;100967.16;;;5.85;nan
48862;BME280;34681;49.188;-0.374;2022-12-10T12:54:45;100964.69;;;5.95;nan
48862;BME280;34681;49.188;-0.374;2022-12-10T12:57:21;100967.94;;;6.13;nan
48862;BME280;34681;49.188;-0.374;2022-12-10T12:59:58;100963.00;;;6.18;nan
48862;BME280;34681;49.188;-0.374;2022-12-10T13:05:19;100969.66;;;6.14;nan
48862;BME280;34681;49.188;-0.374;2022-12-10T13:13:25;100947.81;;;6.03;nan
48862;BME280;34681;49.188;-0.374;2022-12-10T13:15:51;100958.16;;;5.85;nan
48862;BME280;34681;49.188;-0.374;2022-12-10T13:18:19;100958.81;;;5.88;nan
48862;BME280;34681;49.188;-0.374;2022-12-10T13:21:30;100959.53;;;6.16;nan
48862;BME280;34681;49.188;-0.374;2022-12-10T13:24:09;100961.94;;;6.08;nan
48862;BME280;34681;49.188;-0.374;2022-12-10T13:26:35;100963.44;;;6.12;nan
48862;BME280;34681;49.188;-0.374;2022-12-10T13:29:24;100968.81;;;6.01;nan
48862;BME280;34681;49.188;-0.374;2022-12-10T13:32:03;100955.13;;;5.89;nan
48862;BME280;34681;49.188;-0.374;2022-12-10T13:34:32;100954.41;;;6.24;nan
48862;BME280;34681;49.188;-0.374;2022-12-10T13:47:45;100958.00;;;6.72;nan
48862;BME280;34681;49.188;-0.374;2022-12-10T13:53:24;100953.78;;;6.68;nan
48862;BME280;34681;49.188;-0.374;2022-12-10T14:06:47;100954.28;;;6.97;nan
48862;BME280;34681;49.188;-0.374;2022-12-10T14:11:52;100962.06;;;7.02;nan
48862;BME280;34681;49.188;-0.374;2022-12-10T14:14:35;100955.94;;;7.22;nan
48862;BME280;34681;49.188;-0.374;2022-12-10T14:17:04;100949.78;;;7.20;nan
48862;BME280;34681;49.188;-0.374;2022-12-10T14:19:32;100945.94;;;7.34;nan
48862;BME280;34681;49.188;-0.374;2022-12-10T14:22:04;100947.28;;;7.17;nan
48862;BME280;34681;49.188;-0.374;2022-12-10T14:24:33;100943.53;;;7.07;nan
48862;BME280;34681;49.188;-0.374;2022-12-10T14:27:15;100948.97;;;6.96;nan
48862;BME280;34681;49.188;-0.374;2022-12-10T14:29:48;100947.31;;;6.93;nan
48862;BME280;34681;49.188;-0.374;2022-12-10T14:32:16;100940.53;;;6.88;nan
48862;BME280;34681;49.188;-0.374;2022-12-10T14:34:54;100942.47;;;6.86;nan
48862;BME280;34681;49.188;-0.374;2022-12-10T14:37:24;100938.13;;;6.83;nan
48862;BME280;34681;49.188;-0.374;2022-12-10T14:39:51;100939.56;;;7.00;nan
48862;BME280;34681;49.188;-0.374;2022-12-10T14:42:17;100934.91;;;7.13;nan
48862;BME280;34681;49.188;-0.374;2022-12-10T14:44:44;100930.38;;;6.90;nan
48862;BME280;34681;49.188;-0.374;2022-12-10T14:47:14;100933.09;;;6.90;nan
48862;BME280;34681;49.188;-0.374;2022-12-10T14:49:43;100930.59;;;6.87;nan
48862;BME280;34681;49.188;-0.374;2022-12-10T14:52:14;100926.19;;;6.97;nan
48862;BME280;34681;49.188;-0.374;2022-12-10T14:54:40;100927.00;;;6.86;nan
48862;BME280;34681;49.188;-0.374;2022-12-10T14:57:08;100927.06;;;6.97;nan
48862;BME280;34681;49.188;-0.374;2022-12-10T14:59:42;100934.84;;;6.91;nan
48862;BME280;34681;49.188;-0.374;2022-12-10T15:02:26;100934.09;;;6.89;nan
48862;BME280;34681;49.188;-0.374;2022-12-10T15:04:52;100932.81;;;6.82;nan